Time;durP1;ratioP1;P1;durP2;ratioP2;P2;SDS_P1;SDS_P2;PMS_P1;PMS_P2;Temp;Humidity;BMP_temperature;BMP_pressure;BME280_temperature;BME280_humidity;BME280_pressure;Samples;Min_cycle;Max_cycle;Signal;HPM_P1;HPM_P2
2023/05/02 00:00:30;;;;;;;10.68;5.93;;;13.40;73.10;;;;;;5032852;28;20037;-71
2023/05/02 00:02:56;;;;;;;10.95;6.28;;;13.40;73.30;;;;;;5037125;28;20102;-70
2023/05/02 00:05:22;;;;;;;11.30;5.55;;;13.30;73.30;;;;;;5037053;28;20036;-71
2023/05/02 00:07:49;;;;;;;8.52;4.82;;;13.30;73.60;;;;;;5036996;28;20480;-71
2023/05/02 00:10:16;;;;;;;8.73;4.68;;;13.30;73.70;;;;;;5036902;28;20078;-71
2023/05/02 00:12:41;;;;;;;14.27;5.97;;;13.20;73.70;;;;;;5036971;28;20171;-71
2023/05/02 00:15:08;;;;;;;10.20;5.38;;;13.20;73.90;;;;;;5036907;28;20068;-71
2023/05/02 00:17:33;;;;;;;10.50;4.88;;;13.20;74.10;;;;;;5020310;28;20041;-71
2023/05/02 00:19:59;;;;;;;12.60;4.65;;;13.20;74.20;;;;;;5037185;28;20056;-70
2023/05/02 00:22:25;;;;;;;9.18;3.58;;;13.20;74.20;;;;;;5036847;28;20327;-70
2023/05/02 00:24:56;;;;;;;12.77;4.57;;;13.10;74.00;;;;;;5036508;28;20102;-70
2023/05/02 00:27:22;;;;;;;8.52;3.45;;;13.10;73.80;;;;;;5036601;28;20551;-70
2023/05/02 00:29:47;;;;;;;9.38;2.95;;;13.10;73.70;;;;;;5036647;28;20124;-70
2023/05/02 00:32:13;;;;;;;7.82;3.10;;;13.10;73.60;;;;;;5036502;28;20171;-70
2023/05/02 00:34:40;;;;;;;7.40;2.85;;;13.00;73.40;;;;;;5003834;28;20053;-70
2023/05/02 00:37:06;;;;;;;7.35;2.17;;;13.00;73.40;;;;;;5020332;28;20454;-70
2023/05/02 00:39:34;;;;;;;8.00;2.80;;;13.00;73.30;;;;;;5036473;28;20503;-70
2023/05/02 00:42:00;;;;;;;6.97;2.13;;;13.00;73.20;;;;;;5036430;28;20125;-70
2023/05/02 00:44:27;;;;;;;7.43;2.35;;;13.00;73.10;;;;;;5036520;28;20037;-70
2023/05/02 00:46:54;;;;;;;8.85;2.83;;;13.00;72.90;;;;;;5036283;28;20052;-70
2023/05/02 00:49:20;;;;;;;9.55;2.67;;;13.00;72.90;;;;;;5019989;28;20040;-70
2023/05/02 00:51:45;;;;;;;6.88;2.50;;;13.00;72.70;;;;;;5036558;28;20383;-70
2023/05/02 00:54:12;;;;;;;5.95;1.90;;;13.00;72.50;;;;;;5036041;28;20123;-70
2023/05/02 00:56:38;;;;;;;7.55;1.90;;;13.00;72.30;;;;;;5036160;28;20052;-70
2023/05/02 00:59:09;;;;;;;4.38;1.85;;;13.00;72.10;;;;;;5036362;28;20123;-70
2023/05/02 01:01:53;;;;;;;5.72;2.10;;;13.00;72.00;;;;;;5035851;28;20056;-70
2023/05/02 01:04:31;;;;;;;8.40;2.13;;;13.10;71.90;;;;;;5035904;28;20043;-70
2023/05/02 01:07:01;;;;;;;5.93;2.63;;;13.10;71.70;;;;;;5036221;28;20041;-70
2023/05/02 01:09:52;;;;;;;5.22;1.65;;;13.10;71.50;;;;;;5019405;28;20033;-70
2023/05/02 01:12:27;;;;;;;6.07;1.98;;;13.10;71.20;;;;;;5035578;28;20162;-70
2023/05/02 01:14:56;;;;;;;4.90;1.63;;;13.10;71.10;;;;;;5036089;28;20118;-70
2023/05/02 01:17:29;;;;;;;7.07;1.73;;;13.00;70.90;;;;;;5053574;28;20041;-70
2023/05/02 01:20:05;;;;;;;6.65;2.15;;;13.10;70.80;;;;;;5035775;28;20041;-70
2023/05/02 01:22:32;;;;;;;6.97;1.65;;;13.00;70.80;;;;;;5035687;28;20115;-70
2023/05/02 01:25:06;;;;;;;7.40;2.28;;;13.00;70.60;;;;;;5053582;28;20383;-70
2023/05/02 01:27:59;;;;;;;5.05;1.88;;;13.00;70.50;;;;;;5035560;28;20044;-70
2023/05/02 01:30:28;;;;;;;6.53;1.83;;;13.00;70.30;;;;;;5019180;28;20151;-70
2023/05/02 01:32:55;;;;;;;3.70;1.58;;;13.00;70.20;;;;;;5035547;28;20041;-70
2023/05/02 01:35:22;;;;;;;3.50;1.55;;;13.00;70.10;;;;;;5019279;28;20059;-70
2023/05/02 01:37:50;;;;;;;6.85;2.03;;;13.00;70.00;;;;;;5035404;28;20052;-70
2023/05/02 01:40:19;;;;;;;4.68;1.40;;;13.00;70.30;;;;;;5035422;28;20523;-70
2023/05/02 01:42:49;;;;;;;5.25;1.60;;;13.00;69.70;;;;;;5035644;28;20044;-70
2023/05/02 01:45:16;;;;;;;5.93;1.88;;;12.90;69.60;;;;;;5035289;28;20123;-70
2023/05/02 01:47:43;;;;;;;3.55;1.33;;;12.90;69.50;;;;;;5035547;28;20076;-70
2023/05/02 01:50:12;;;;;;;4.00;1.65;;;12.90;69.90;;;;;;5018944;28;20124;-70
2023/05/02 01:52:39;;;;;;;7.13;1.80;;;12.90;69.50;;;;;;5035169;28;20037;-70
2023/05/02 01:55:09;;;;;;;4.97;1.40;;;12.90;69.40;;;;;;5034967;28;20107;-70
2023/05/02 01:57:38;;;;;;;5.10;1.85;;;12.90;69.50;;;;;;5035038;28;20047;-70
2023/05/02 02:00:05;;;;;;;5.50;2.03;;;12.90;69.50;;;;;;5035012;28;20044;-70
2023/05/02 02:02:33;;;;;;;5.53;1.83;;;12.90;69.50;;;;;;5015166;28;20057;-70
2023/05/02 02:05:01;;;;;;;7.78;2.10;;;12.90;69.50;;;;;;5031792;28;20072;-70
2023/05/02 02:07:27;;;;;;;4.65;1.80;;;12.90;69.60;;;;;;5031771;28;20069;-70
2023/05/02 02:09:53;;;;;;;6.75;1.55;;;12.80;69.50;;;;;;5015224;28;20042;-70
2023/05/02 02:12:35;;;;;;;5.43;2.33;;;12.80;69.50;;;;;;5031682;28;20615;-70
2023/05/02 02:15:20;;;;;;;4.05;1.65;;;12.80;69.60;;;;;;5031564;28;20045;-70
2023/05/02 02:17:48;;;;;;;;;;;12.80;69.80;;;;;;5032210;28;20405;-70
2023/05/02 02:20:15;;;;;;;5.35;2.05;;;12.70;69.70;;;;;;5031724;28;19970;-70
2023/05/02 02:22:43;;;;;;;6.38;2.10;;;12.60;70.00;;;;;;5015226;28;20436;-70
2023/05/02 02:25:12;;;;;;;5.63;2.05;;;12.60;70.30;;;;;;5035406;28;20099;-70
2023/05/02 02:27:38;;;;;;;7.20;2.45;;;12.60;70.60;;;;;;5019459;28;20033;-70
2023/05/02 02:30:04;;;;;;;9.13;3.10;;;12.60;71.30;;;;;;5035566;28;20374;-70
2023/05/02 02:32:30;;;;;;;11.18;3.85;;;12.50;71.10;;;;;;5035825;28;20046;-70
2023/05/02 02:34:56;;;;;;;12.38;3.97;;;12.50;71.10;;;;;;5019103;28;20489;-70
2023/05/02 02:37:29;;;;;;;15.55;4.28;;;12.40;70.90;;;;;;5035718;28;20045;-70
2023/05/02 02:40:08;;;;;;;15.18;4.50;;;12.30;70.90;;;;;;5035571;28;20195;-70
2023/05/02 02:42:52;;;;;;;15.18;4.40;;;12.20;70.70;;;;;;5035363;28;20048;-70
2023/05/02 02:45:30;;;;;;;14.13;4.60;;;12.20;70.70;;;;;;5035348;28;20411;-70
2023/05/02 02:48:07;;;;;;;14.18;3.85;;;12.10;70.70;;;;;;5035593;28;20397;-70
2023/05/02 02:50:49;;;;;;;14.35;3.67;;;12.00;70.80;;;;;;5019018;28;20049;-70
2023/05/02 02:53:25;;;;;;;16.40;4.22;;;11.90;70.50;;;;;;5018847;28;20053;-70
2023/05/02 02:56:01;;;;;;;16.00;4.10;;;11.90;70.80;;;;;;5035069;28;20045;-70
2023/05/02 02:59:03;;;;;;;18.73;4.32;;;11.80;70.60;;;;;;5035465;28;20064;-70
2023/05/02 03:01:32;;;;;;;16.42;4.28;;;11.70;70.30;;;;;;4996001;28;20067;-70
2023/05/02 03:03:58;;;;;;;18.25;5.22;;;11.70;70.00;;;;;;5035125;28;20053;-70
2023/05/02 03:06:26;;;;;;;15.57;4.00;;;11.60;69.90;;;;;;5034911;28;20045;-70
2023/05/02 03:08:51;;;;;;;16.95;4.40;;;11.50;69.90;;;;;;5034796;28;20049;-70
2023/05/02 03:11:17;;;;;;;15.68;4.00;;;11.50;70.00;;;;;;5018685;28;20029;-70
2023/05/02 03:13:43;;;;;;;17.85;5.10;;;11.40;70.00;;;;;;5035127;28;20049;-70
2023/05/02 03:16:30;;;;;;;19.13;4.82;;;11.40;69.90;;;;;;5034742;28;20382;-70
2023/05/02 03:18:55;;;;;;;15.98;4.43;;;11.40;69.30;;;;;;5034662;28;20042;-70
2023/05/02 03:21:21;;;;;;;18.73;5.88;;;11.30;69.00;;;;;;5034626;28;20048;-70
2023/05/02 03:23:47;;;;;;;17.27;5.05;;;11.20;69.10;;;;;;5018166;28;20056;-70
2023/05/02 03:26:12;;;;;;;18.30;4.75;;;11.10;68.90;;;;;;5034405;28;20053;-70
2023/05/02 03:28:38;;;;;;;13.00;4.30;;;11.00;68.90;;;;;;5002143;28;20072;-70
2023/05/02 03:31:04;;;;;;;14.63;4.25;;;11.00;69.20;;;;;;5034724;28;20481;-70
2023/05/02 03:33:30;;;;;;;11.20;3.33;;;11.00;69.70;;;;;;5035630;28;20536;-70
2023/05/02 03:35:55;;;;;;;14.38;4.22;;;11.00;70.00;;;;;;5034410;28;20041;-70
2023/05/02 03:38:21;;;;;;;14.85;3.70;;;11.00;70.00;;;;;;5018097;28;20041;-70
2023/05/02 03:40:47;;;;;;;17.38;4.82;;;11.10;69.90;;;;;;5034253;28;20384;-70
2023/05/02 03:43:12;;;;;;;12.82;3.03;;;11.00;69.20;;;;;;5034583;28;20095;-70
2023/05/02 03:45:38;;;;;;;14.48;3.97;;;11.00;68.80;;;;;;5017756;28;20088;-70
2023/05/02 03:48:04;;;;;;;14.50;3.95;;;11.10;68.80;;;;;;5034142;28;20124;-70
2023/05/02 03:50:29;;;;;;;11.68;3.25;;;11.10;68.80;;;;;;5034003;28;20114;-70
2023/05/02 03:52:55;;;;;;;13.52;3.70;;;11.10;68.60;;;;;;5034233;28;20033;-70
2023/05/02 03:55:21;;;;;;;12.88;3.58;;;11.10;68.20;;;;;;5034221;28;20045;-70
2023/05/02 03:57:47;;;;;;;12.15;3.47;;;11.00;67.90;;;;;;5033942;28;20420;-70
2023/05/02 04:00:13;;;;;;;10.02;3.05;;;11.00;67.90;;;;;;5033910;28;20052;-70
2023/05/02 04:02:38;;;;;;;12.18;3.35;;;11.00;68.20;;;;;;5033618;28;20194;-70
2023/05/02 04:05:04;;;;;;;10.50;3.60;;;11.00;67.70;;;;;;5017229;28;20038;-70
2023/05/02 04:07:30;;;;;;;17.08;4.55;;;11.00;67.40;;;;;;5017342;28;20072;-70
2023/05/02 04:09:56;;;;;;;14.00;3.67;;;11.00;67.30;;;;;;5033909;28;20037;-70
2023/05/02 04:12:21;;;;;;;14.05;3.92;;;11.00;66.90;;;;;;5033556;28;20046;-70
2023/05/02 04:14:47;;;;;;;9.48;3.05;;;11.00;66.90;;;;;;5017425;28;20045;-70
2023/05/02 04:17:14;;;;;;;13.13;3.50;;;11.00;66.50;;;;;;5033552;28;20469;-70
2023/05/02 04:19:40;;;;;;;11.15;2.85;;;10.90;66.70;;;;;;5017140;28;20049;-70
2023/05/02 04:22:06;;;;;;;14.30;3.08;;;10.90;66.50;;;;;;5033500;28;20037;-70
2023/05/02 04:24:31;;;;;;;11.05;2.92;;;10.90;66.50;;;;;;5033263;28;20046;-70
2023/05/02 04:26:57;;;;;;;13.00;3.13;;;10.90;66.50;;;;;;5000951;28;20041;-70
2023/05/02 04:29:23;;;;;;;7.40;2.85;;;10.90;66.40;;;;;;5016817;28;20079;-70
2023/05/02 04:31:49;;;;;;;11.93;3.22;;;10.90;65.80;;;;;;5033270;28;20034;-69
2023/05/02 04:34:15;;;;;;;9.07;2.50;;;10.80;65.40;;;;;;5033228;28;20064;-70
2023/05/02 04:36:41;;;;;;;10.75;2.72;;;10.80;65.80;;;;;;5033256;28;20120;-69
2023/05/02 04:39:07;;;;;;;9.52;2.75;;;10.80;66.40;;;;;;5033479;28;20049;-70
2023/05/02 04:41:33;;;;;;;11.80;3.45;;;10.80;65.70;;;;;;5016721;28;20095;-70
2023/05/02 04:43:59;;;;;;;7.80;2.47;;;10.80;65.50;;;;;;5016805;28;20045;-70
2023/05/02 04:46:25;;;;;;;12.70;2.63;;;10.80;65.80;;;;;;5000171;28;20505;-70
2023/05/02 04:48:50;;;;;;;12.00;2.90;;;10.80;66.10;;;;;;5032990;28;20136;-70
2023/05/02 04:51:16;;;;;;;9.30;2.67;;;10.70;65.30;;;;;;5000485;28;20041;-70
2023/05/02 04:53:42;;;;;;;8.55;1.90;;;10.70;64.90;;;;;;5000550;28;20397;-76
2023/05/02 04:56:07;;;;;;;6.03;1.90;;;10.70;65.10;;;;;;5016571;28;20041;-76
2023/05/02 04:58:36;;;;;;;10.32;2.95;;;10.70;64.80;;;;;;5033179;28;20037;-76
2023/05/02 05:01:01;;;;;;;8.80;2.00;;;10.70;64.80;;;;;;5032905;28;20061;-76
2023/05/02 05:03:32;;;;;;;8.45;2.70;;;10.80;64.60;;;;;;5033291;28;20045;-76
2023/05/02 05:05:58;;;;;;;9.63;2.53;;;10.80;64.50;;;;;;5033276;28;20045;-76
2023/05/02 05:08:23;;;;;;;6.50;2.40;;;10.80;63.90;;;;;;5016813;28;20037;-76
2023/05/02 05:10:50;;;;;;;11.00;2.00;;;10.70;63.30;;;;;;5032924;28;20099;-76
2023/05/02 05:13:15;;;;;;;8.25;2.22;;;10.70;62.90;;;;;;5033378;28;20049;-76
2023/05/02 05:15:43;;;;;;;5.93;2.25;;;10.70;62.90;;;;;;5032948;28;20124;-76
2023/05/02 05:18:09;;;;;;;7.60;1.92;;;10.70;63.00;;;;;;5017079;28;20085;-76
2023/05/02 05:20:34;;;;;;;6.97;1.85;;;10.60;62.70;;;;;;5032663;28;20075;-76
2023/05/02 05:23:00;;;;;;;6.50;1.92;;;10.60;62.70;;;;;;5016315;28;20122;-76
2023/05/02 05:25:29;;;;;;;10.65;2.88;;;10.60;62.90;;;;;;5032389;28;20088;-76
2023/05/02 05:27:55;;;;;;;4.93;1.35;;;10.60;61.60;;;;;;5032548;28;20044;-77
2023/05/02 05:30:21;;;;;;;8.43;2.05;;;10.60;60.30;;;;;;5032791;28;20120;-75
2023/05/02 05:32:47;;;;;;;6.95;1.70;;;10.60;60.30;;;;;;5032475;28;20559;-76
2023/05/02 05:35:13;;;;;;;8.60;1.70;;;10.50;61.00;;;;;;5032391;28;20045;-76
2023/05/02 05:37:38;;;;;;;6.80;1.98;;;10.60;61.80;;;;;;5032378;28;20049;-76
2023/05/02 05:40:08;;;;;;;8.70;1.80;;;10.60;61.50;;;;;;5032594;28;20041;-76
2023/05/02 05:42:33;;;;;;;7.90;1.80;;;10.60;62.10;;;;;;5016004;28;20040;-76
2023/05/02 05:44:59;;;;;;;6.25;1.77;;;10.70;62.20;;;;;;5032357;28;20075;-76
2023/05/02 05:47:25;;;;;;;8.40;2.35;;;10.70;62.90;;;;;;5015884;28;20041;-76
2023/05/02 05:49:55;;;;;;;9.63;2.25;;;10.80;62.10;;;;;;5016155;28;20134;-76
2023/05/02 05:52:21;;;;;;;5.82;1.77;;;10.80;62.00;;;;;;5015531;28;20501;-76
2023/05/02 05:54:47;;;;;;;4.97;1.73;;;10.80;61.60;;;;;;5031993;28;20041;-76
2023/05/02 05:57:13;;;;;;;6.38;1.73;;;10.90;61.40;;;;;;5031967;28;20076;-76
2023/05/02 05:59:38;;;;;;;6.80;1.95;;;11.00;61.10;;;;;;5031698;28;20124;-76
2023/05/02 06:02:04;;;;;;;7.00;2.05;;;11.00;60.70;;;;;;5046556;28;20567;-76
2023/05/02 06:04:30;;;;;;;8.18;2.35;;;11.10;59.70;;;;;;5035450;28;20084;-77
2023/05/02 06:06:56;;;;;;;10.73;2.05;;;11.10;59.20;;;;;;5035512;28;20377;-76
2023/05/02 06:09:21;;;;;;;5.95;1.95;;;11.20;58.70;;;;;;5018864;28;20048;-76
2023/05/02 06:11:47;;;;;;;7.93;2.35;;;11.50;59.00;;;;;;5035302;28;20087;-76
2023/05/02 06:14:13;;;;;;;7.03;1.98;;;11.80;58.50;;;;;;5035298;28;20041;-76
2023/05/02 06:16:39;;;;;;;5.82;2.08;;;12.10;57.50;;;;;;5035515;28;20516;-76
2023/05/02 06:19:05;;;;;;;8.15;2.40;;;12.40;56.20;;;;;;5019131;28;20384;-77
2023/05/02 06:21:30;;;;;;;7.97;2.40;;;12.70;54.30;;;;;;5035423;28;20403;-77
2023/05/02 06:23:56;;;;;;;7.68;2.47;;;12.90;51.80;;;;;;5052844;28;20044;-76
2023/05/02 06:26:22;;;;;;;6.88;2.30;;;12.90;51.70;;;;;;5018857;28;20049;-76
2023/05/02 06:28:48;;;;;;;4.93;2.00;;;12.80;51.60;;;;;;5018836;28;20484;-76
2023/05/02 06:31:15;;;;;;;5.07;1.88;;;12.80;52.30;;;;;;5018651;28;20036;-77
2023/05/02 06:33:41;;;;;;;6.82;1.80;;;12.90;51.80;;;;;;5035062;28;20119;-76
2023/05/02 06:36:07;;;;;;;9.50;2.13;;;12.80;51.50;;;;;;5034942;28;20056;-76
2023/05/02 06:38:32;;;;;;;7.13;1.92;;;12.80;50.70;;;;;;5052953;28;20037;-75
2023/05/02 06:40:58;;;;;;;6.13;2.15;;;12.80;49.60;;;;;;5035033;28;20507;-76
2023/05/02 06:43:24;;;;;;;9.30;2.20;;;12.70;48.70;;;;;;5018642;28;20576;-76
2023/05/02 06:45:53;;;;;;;10.95;2.20;;;12.60;49.90;;;;;;5018561;28;20037;-76
2023/05/02 06:48:20;;;;;;;6.07;1.83;;;12.60;49.40;;;;;;5035055;28;20041;-75
2023/05/02 06:50:46;;;;;;;4.53;1.95;;;12.50;50.20;;;;;;5018632;28;20037;-77
2023/05/02 06:53:11;;;;;;;5.55;2.05;;;12.40;51.30;;;;;;5035083;28;20041;-76
2023/05/02 06:55:37;;;;;;;4.43;1.73;;;12.40;51.90;;;;;;5018592;28;20404;-75
2023/05/02 06:58:03;;;;;;;4.68;1.88;;;12.40;51.90;;;;;;5035028;28;20041;-76
2023/05/02 07:00:29;;;;;;;10.18;2.78;;;12.40;52.60;;;;;;5018233;28;20049;-75
2023/05/02 07:02:55;;;;;;;5.40;1.77;;;12.50;52.40;;;;;;5034599;28;20071;-75
2023/05/02 07:05:20;;;;;;;6.65;1.50;;;12.50;52.20;;;;;;5018153;28;20049;-75
2023/05/02 07:07:46;;;;;;;10.85;2.45;;;12.50;52.00;;;;;;5034613;28;20033;-75
2023/05/02 07:10:12;;;;;;;5.53;1.98;;;12.50;51.40;;;;;;5036723;28;20045;-76
2023/05/02 07:12:38;;;;;;;7.95;1.95;;;12.50;52.10;;;;;;5038438;28;20056;-75
2023/05/02 07:15:05;;;;;;;6.03;1.70;;;12.50;52.80;;;;;;5038553;28;20486;-75
2023/05/02 07:17:31;;;;;;;8.82;2.33;;;12.50;52.00;;;;;;5038253;28;20057;-76
2023/05/02 07:19:57;;;;;;;9.95;2.30;;;12.50;51.50;;;;;;5038222;28;20128;-76
2023/05/02 07:22:22;;;;;;;10.02;2.13;;;12.50;51.70;;;;;;5021552;28;20044;-75
2023/05/02 07:24:55;;;;;;;7.93;2.05;;;12.50;51.90;;;;;;5038256;28;20048;-76
2023/05/02 07:27:21;;;;;;;8.63;2.90;;;12.40;51.50;;;;;;5022630;28;20049;-76
2023/05/02 07:29:47;;;;;;;6.90;2.20;;;12.40;50.90;;;;;;5038107;28;20047;-76
2023/05/02 07:32:12;;;;;;;8.50;2.42;;;12.40;51.00;;;;;;5038018;28;20091;-76
2023/05/02 07:34:38;;;;;;;6.68;2.78;;;12.40;50.90;;;;;;5038111;28;20049;-75
2023/05/02 07:37:04;;;;;;;9.65;2.17;;;12.40;50.90;;;;;;5038003;28;20040;-76
2023/05/02 07:39:32;;;;;;;6.55;2.50;;;12.40;50.60;;;;;;5038333;28;20052;-75
2023/05/02 07:41:57;;;;;;;7.97;2.20;;;12.40;50.60;;;;;;5038014;28;20076;-75
2023/05/02 07:44:23;;;;;;;8.25;2.47;;;12.50;51.20;;;;;;5037918;28;20448;-75
2023/05/02 07:46:49;;;;;;;8.82;2.38;;;12.50;50.90;;;;;;5038027;28;20365;-76
2023/05/02 07:49:15;;;;;;;6.68;2.38;;;12.50;51.20;;;;;;5037781;28;20488;-76
2023/05/02 07:51:41;;;;;;;10.40;2.53;;;12.50;50.20;;;;;;5037873;28;20102;-76
2023/05/02 07:54:17;;;;;;;7.85;2.17;;;12.50;49.70;;;;;;5037796;28;20063;-76
2023/05/02 07:56:43;;;;;;;6.43;1.95;;;12.50;50.00;;;;;;5037809;28;20079;-76
2023/05/02 07:59:10;;;;;;;8.13;2.08;;;12.50;49.40;;;;;;5021035;28;20044;-76
2023/05/02 08:01:36;;;;;;;6.93;2.10;;;12.50;49.60;;;;;;5034016;28;20061;-76
2023/05/02 08:04:03;;;;;;;6.85;2.13;;;12.50;49.80;;;;;;5034287;28;20081;-76
2023/05/02 08:06:29;;;;;;;7.95;2.25;;;12.50;49.40;;;;;;5034555;28;20046;-76
2023/05/02 08:08:55;;;;;;;10.95;2.17;;;12.60;49.10;;;;;;5017749;28;20072;-76
2023/05/02 08:11:24;;;;;;;8.30;1.88;;;12.50;48.00;;;;;;5034032;28;20042;-76
2023/05/02 08:13:53;;;;;;;9.68;2.75;;;12.50;48.30;;;;;;5034029;28;20076;-76
2023/05/02 08:16:19;;;;;;;10.02;2.95;;;12.50;49.40;;;;;;5017989;28;20033;-76
2023/05/02 08:18:45;;;;;;;9.90;2.65;;;12.50;50.20;;;;;;5017746;28;20467;-76
2023/05/02 08:21:11;;;;;;;7.38;2.20;;;12.50;50.70;;;;;;5016757;28;20133;-76
2023/05/02 08:23:37;;;;;;;8.23;2.55;;;12.50;51.10;;;;;;5033630;28;20073;-76
2023/05/02 08:26:03;;;;;;;6.53;2.22;;;12.50;51.30;;;;;;5033810;28;20079;-76
2023/05/02 08:28:29;;;;;;;9.23;2.65;;;12.50;51.40;;;;;;5033437;28;20045;-76
2023/05/02 08:30:55;;;;;;;9.75;2.78;;;12.50;51.20;;;;;;5016908;28;20104;-76
2023/05/02 08:33:21;;;;;;;10.63;2.88;;;12.50;51.10;;;;;;5033384;28;20115;-76
2023/05/02 08:35:47;;;;;;;8.20;2.97;;;12.50;50.80;;;;;;5033467;28;20148;-76
2023/05/02 08:38:13;;;;;;;5.35;2.22;;;12.40;49.80;;;;;;5033720;28;20392;-76
2023/05/02 08:40:38;;;;;;;10.77;2.70;;;12.30;50.60;;;;;;5033451;28;20041;-76
2023/05/02 08:43:05;;;;;;;9.38;2.85;;;12.30;50.80;;;;;;5033388;28;20049;-76
2023/05/02 08:45:37;;;;;;;7.47;2.10;;;12.20;50.30;;;;;;5033476;28;20052;-76
2023/05/02 08:48:09;;;;;;;6.85;2.25;;;12.10;51.30;;;;;;5033515;28;20476;-76
2023/05/02 08:50:44;;;;;;;7.40;2.45;;;12.10;51.40;;;;;;5016747;28;20118;-76
2023/05/02 08:53:12;;;;;;;9.25;2.78;;;12.10;51.40;;;;;;5033077;28;20045;-76
2023/05/02 08:55:39;;;;;;;9.50;2.67;;;12.10;50.90;;;;;;5016910;28;20049;-76
2023/05/02 08:58:07;;;;;;;10.15;3.25;;;12.10;51.20;;;;;;5033379;28;20040;-75
2023/05/02 09:00:40;;;;;;;7.38;2.40;;;12.20;51.10;;;;;;5033185;28;20489;-76
2023/05/02 09:03:18;;;;;;;6.30;2.50;;;12.30;51.20;;;;;;5032900;28;20501;-76
2023/05/02 09:05:50;;;;;;;5.75;1.88;;;12.30;50.00;;;;;;5032960;28;20056;-76
2023/05/02 09:08:21;;;;;;;11.68;2.42;;;12.40;50.90;;;;;;5033010;28;20041;-76
2023/05/02 09:10:48;;;;;;;10.65;2.55;;;12.40;51.40;;;;;;5033107;28;20041;-76
2023/05/02 09:13:32;;;;;;;7.55;2.50;;;12.50;51.80;;;;;;5016508;28;20046;-76
2023/05/02 09:16:00;;;;;;;8.55;2.67;;;12.70;51.50;;;;;;5032836;28;20048;-76
2023/05/02 09:18:41;;;;;;;7.32;2.75;;;12.70;51.30;;;;;;5032809;28;20488;-76
2023/05/02 09:21:09;;;;;;;8.05;2.60;;;12.80;51.10;;;;;;5032698;28;20045;-76
2023/05/02 09:23:46;;;;;;;7.40;2.10;;;13.00;50.90;;;;;;5032552;28;20045;-76
2023/05/02 09:26:22;;;;;;;5.53;2.40;;;13.10;49.70;;;;;;5032595;28;20064;-76
2023/05/02 09:28:50;;;;;;;10.35;2.80;;;13.10;48.30;;;;;;5032847;28;20041;-76
2023/05/02 09:31:21;;;;;;;10.77;2.58;;;13.20;48.90;;;;;;5032628;28;20044;-76
2023/05/02 09:33:47;;;;;;;6.38;2.20;;;13.20;48.90;;;;;;5033653;28;20100;-76
2023/05/02 09:36:15;;;;;;;8.18;2.67;;;13.20;49.90;;;;;;5032590;28;20046;-76
2023/05/02 09:38:46;;;;;;;5.20;2.10;;;13.30;48.80;;;;;;5032733;28;20079;-76
2023/05/02 09:41:12;;;;;;;7.90;1.88;;;13.30;49.20;;;;;;5015912;28;20125;-76
2023/05/02 09:43:39;;;;;;;5.95;2.05;;;13.30;48.50;;;;;;5032635;28;20124;-76
2023/05/02 09:46:07;;;;;;;7.35;2.28;;;13.40;48.20;;;;;;5032295;28;20045;-76
2023/05/02 09:48:57;;;;;;;5.82;1.92;;;13.40;47.80;;;;;;5015857;28;20040;-76
2023/05/02 09:51:26;;;;;;;3.40;1.80;;;13.50;47.50;;;;;;5016108;28;20053;-76
2023/05/02 09:53:53;;;;;;;5.35;2.17;;;13.60;47.40;;;;;;5015991;28;20067;-76
2023/05/02 09:56:19;;;;;;;5.28;2.15;;;13.60;46.30;;;;;;5032396;28;20048;-77
2023/05/02 09:58:45;;;;;;;6.20;1.67;;;13.70;45.60;;;;;;5032091;28;20048;-76
2023/05/02 10:01:15;;;;;;;5.22;1.70;;;13.60;43.60;;;;;;5034074;28;20131;-76
2023/05/02 10:03:46;;;;;;;5.30;1.70;;;13.60;43.30;;;;;;5018603;28;20041;-69
2023/05/02 10:06:13;;;;;;;6.60;1.77;;;13.60;43.60;;;;;;5035289;28;20119;-70
2023/05/02 10:08:41;;;;;;;4.50;1.70;;;13.60;43.90;;;;;;5034971;28;20041;-69
2023/05/02 10:11:07;;;;;;;6.05;2.35;;;13.60;44.00;;;;;;5034910;28;20079;-70
2023/05/02 10:13:36;;;;;;;4.80;1.35;;;13.70;45.50;;;;;;5035219;28;20072;-69
2023/05/02 10:16:06;;;;;;;5.95;1.95;;;13.80;45.50;;;;;;5035056;28;20052;-70
2023/05/02 10:18:51;;;;;;;4.07;1.50;;;13.90;42.70;;;;;;5035131;28;20045;-76
2023/05/02 10:21:24;;;;;;;5.03;1.77;;;13.90;44.40;;;;;;5035310;28;20159;-75
2023/05/02 10:23:52;;;;;;;5.88;1.55;;;13.90;44.00;;;;;;5035071;28;20079;-76
2023/05/02 10:26:20;;;;;;;8.88;2.00;;;14.00;44.10;;;;;;5035417;28;20049;-76
2023/05/02 10:28:46;;;;;;;6.60;1.83;;;14.10;43.40;;;;;;5035407;28;20048;-75
2023/05/02 10:31:14;;;;;;;3.80;1.38;;;14.10;44.10;;;;;;5035182;28;20045;-76
2023/05/02 10:33:40;;;;;;;6.25;1.92;;;14.10;44.80;;;;;;5035471;28;20045;-76
2023/05/02 10:36:11;;;;;;;5.38;1.83;;;14.20;44.80;;;;;;5018726;28;20404;-76
2023/05/02 10:38:38;;;;;;;5.20;1.52;;;14.30;45.20;;;;;;5018451;28;20043;-76
2023/05/02 10:41:27;;;;;;;3.05;1.40;;;14.30;44.40;;;;;;5035045;28;20480;-76
2023/05/02 10:43:53;;;;;;;6.28;1.80;;;14.40;43.80;;;;;;5018687;28;20494;-76
2023/05/02 10:46:40;;;;;;;5.20;2.13;;;14.40;42.40;;;;;;5039264;28;20120;-76
2023/05/02 10:49:07;;;;;;;4.43;1.58;;;14.50;41.90;;;;;;5038805;28;20488;-76
2023/05/02 10:51:35;;;;;;;6.05;1.58;;;14.50;42.70;;;;;;5022318;28;20492;-76
2023/05/02 10:54:17;;;;;;;8.05;1.95;;;14.50;42.90;;;;;;5038725;28;20072;-76
2023/05/02 10:57:07;;;;;;;4.70;1.42;;;14.60;43.00;;;;;;5022369;28;20045;-76
2023/05/02 10:59:41;;;;;;;3.67;1.50;;;14.60;42.70;;;;;;5038912;28;20128;-77
2023/05/02 11:02:22;;;;;;;4.95;1.27;;;14.60;42.40;;;;;;5038505;28;20118;-76
2023/05/02 11:05:05;;;;;;;4.15;1.17;;;14.60;40.00;;;;;;5038743;28;20128;-75
2023/05/02 11:07:32;;;;;;;7.00;1.50;;;14.60;40.40;;;;;;5038655;28;20116;-76
2023/05/02 11:10:16;;;;;;;4.78;1.20;;;14.50;41.90;;;;;;5038535;28;20040;-76
2023/05/02 11:12:50;;;;;;;5.10;1.70;;;14.60;42.90;;;;;;5038623;28;20040;-76
2023/05/02 11:15:27;;;;;;;7.95;2.00;;;14.60;43.00;;;;;;5038350;28;20488;-75
2023/05/02 11:18:13;;;;;;;4.00;1.30;;;14.70;41.80;;;;;;5038173;28;20496;-76
2023/05/02 11:20:43;;;;;;;2.92;1.38;;;14.80;42.20;;;;;;5021745;28;20052;-76
2023/05/02 11:23:15;;;;;;;2.90;1.08;;;14.90;42.90;;;;;;5038338;28;20075;-76
2023/05/02 11:25:46;;;;;;;3.60;1.13;;;14.90;42.00;;;;;;5038319;28;20048;-75
2023/05/02 11:28:46;;;;;;;3.45;1.40;;;15.00;42.50;;;;;;5038148;28;20069;-75
2023/05/02 11:31:27;;;;;;;5.93;1.90;;;15.10;41.30;;;;;;5038497;28;20037;-77
2023/05/02 11:33:57;;;;;;;3.13;1.10;;;15.10;42.40;;;;;;5038009;28;20044;-76
2023/05/02 11:36:32;;;;;;;1.95;0.90;;;15.20;42.90;;;;;;5038216;28;20124;-76
2023/05/02 11:39:02;;;;;;;3.30;1.23;;;15.20;42.60;;;;;;5037942;28;20041;-75
2023/05/02 11:41:45;;;;;;;2.38;1.13;;;15.30;42.40;;;;;;5038081;28;20073;-76
2023/05/02 11:44:11;;;;;;;3.23;0.90;;;15.30;41.40;;;;;;5037939;28;20049;-75
2023/05/02 11:46:38;;;;;;;3.70;1.20;;;15.40;40.70;;;;;;5021460;28;20037;-76
2023/05/02 11:49:05;;;;;;;4.63;1.33;;;15.40;40.70;;;;;;5021399;28;20048;-76
2023/05/02 11:51:31;;;;;;;2.28;1.23;;;15.40;40.90;;;;;;5037730;28;20037;-75
2023/05/02 11:53:56;;;;;;;3.75;1.00;;;15.40;41.30;;;;;;5037454;28;20040;-75
2023/05/02 11:56:23;;;;;;;2.92;1.38;;;15.50;41.10;;;;;;5036542;28;20033;-75
2023/05/02 11:58:59;;;;;;;3.42;1.23;;;15.50;41.30;;;;;;5037555;28;20511;-75
2023/05/02 12:01:26;;;;;;;3.55;1.30;;;15.50;41.80;;;;;;5037571;28;20052;-76
2023/05/02 12:04:05;;;;;;;2.72;1.45;;;15.50;42.00;;;;;;5020731;28;20049;-75
2023/05/02 12:06:32;;;;;;;3.45;1.40;;;15.60;42.40;;;;;;5020913;28;20045;-76
2023/05/02 12:09:18;;;;;;;3.42;1.13;;;15.70;42.40;;;;;;5021274;28;20048;-76
2023/05/02 12:11:44;;;;;;;2.80;1.35;;;15.70;41.50;;;;;;5037521;28;20045;-76
2023/05/02 12:14:10;;;;;;;2.97;1.15;;;15.80;41.20;;;;;;5037630;28;20037;-77
2023/05/02 12:16:36;;;;;;;4.18;1.00;;;15.80;41.40;;;;;;5037324;28;20047;-76
2023/05/02 12:19:03;;;;;;;4.50;1.23;;;15.80;41.60;;;;;;5020971;28;20033;-77
2023/05/02 12:21:29;;;;;;;6.38;1.80;;;15.90;41.80;;;;;;5037467;28;20047;-76
2023/05/02 12:23:55;;;;;;;5.55;1.48;;;15.90;42.00;;;;;;5020844;28;20045;-75
2023/05/02 12:26:28;;;;;;;5.07;1.30;;;15.90;42.40;;;;;;5037013;28;20492;-76
2023/05/02 12:28:55;;;;;;;5.80;1.40;;;15.90;42.30;;;;;;5021301;28;20451;-77
2023/05/02 12:31:21;;;;;;;4.43;1.38;;;15.90;41.80;;;;;;5037251;28;20053;-76
2023/05/02 12:33:49;;;;;;;8.30;1.75;;;15.80;42.00;;;;;;5020620;28;20041;-76
2023/05/02 12:36:15;;;;;;;3.15;1.00;;;15.80;42.20;;;;;;5037168;28;20049;-76
2023/05/02 12:38:51;;;;;;;5.70;1.45;;;15.80;42.90;;;;;;5020637;28;20534;-76
2023/05/02 12:41:18;;;;;;;4.63;1.85;;;15.90;43.60;;;;;;5037026;28;20124;-76
2023/05/02 12:43:50;;;;;;;2.85;0.90;;;15.90;42.70;;;;;;5020355;28;20591;-77
2023/05/02 12:46:16;;;;;;;4.88;1.63;;;15.90;42.60;;;;;;5036725;28;20041;-76
2023/05/02 12:48:42;;;;;;;3.65;0.90;;;15.70;41.30;;;;;;5036942;28;20392;-76
2023/05/02 12:51:22;;;;;;;4.25;1.33;;;15.60;41.40;;;;;;5036841;28;20040;-75
2023/05/02 12:53:48;;;;;;;5.05;1.30;;;15.50;41.40;;;;;;5020194;28;20115;-76